createdAt,value
2018-12-26T00:00:28.028Z,21.00
2018-12-26T00:01:06.995Z,20.70
2018-12-26T00:02:27.975Z,22.30
2018-12-26T00:03:06.944Z,21.10
2018-12-26T00:04:06.926Z,21.10
2018-12-26T00:05:27.988Z,21.40
2018-12-26T00:06:06.887Z,21.50
2018-12-26T00:07:27.857Z,20.30
2018-12-26T00:08:06.845Z,21.00
2018-12-26T00:09:06.816Z,20.70
2018-12-26T00:10:27.797Z,20.30
2018-12-26T00:11:06.773Z,20.10
2018-12-26T00:12:27.747Z,21.70
2018-12-26T00:13:06.741Z,20.70
2018-12-26T00:14:06.698Z,20.80
2018-12-26T00:15:27.693Z,19.90
2018-12-26T00:16:06.662Z,20.50
2018-12-26T00:17:27.642Z,20.20
2018-12-26T00:18:06.618Z,19.50
2018-12-26T00:19:06.589Z,19.50
2018-12-26T00:20:27.576Z,20.00
2018-12-26T00:21:06.553Z,20.30
2018-12-26T00:22:27.531Z,20.00
2018-12-26T00:23:06.508Z,20.40
2018-12-26T00:24:06.475Z,20.80
2018-12-26T00:25:27.487Z,19.70
2018-12-26T00:26:06.433Z,19.70
2018-12-26T00:27:27.410Z,19.50
2018-12-26T00:28:06.396Z,20.80
2018-12-26T00:29:06.368Z,25.70
2018-12-26T00:30:27.343Z,23.40
2018-12-26T00:31:06.331Z,21.60
2018-12-26T00:32:27.302Z,21.80
2018-12-26T00:33:06.284Z,21.00
2018-12-26T00:34:06.263Z,20.10
2018-12-26T00:35:27.232Z,20.20
2018-12-26T00:36:06.210Z,21.10
2018-12-26T00:37:27.195Z,20.10
2018-12-26T00:38:06.167Z,20.20
2018-12-26T00:39:06.143Z,19.50
2018-12-26T00:40:27.124Z,20.30
2018-12-26T00:41:06.104Z,20.90
2018-12-26T00:42:27.077Z,20.30
2018-12-26T00:43:06.057Z,20.80
2018-12-26T00:44:06.035Z,19.90
2018-12-26T00:45:27.021Z,20.10
2018-12-26T00:46:05.989Z,20.40
2018-12-26T00:47:26.968Z,20.40
2018-12-26T00:48:05.962Z,19.80
2018-12-26T00:49:05.939Z,19.40
2018-12-26T00:50:26.913Z,21.40
2018-12-26T00:51:05.880Z,21.50
2018-12-26T00:52:26.863Z,19.70
2018-12-26T00:53:05.836Z,20.90
2018-12-26T00:54:05.813Z,19.90
2018-12-26T00:55:26.800Z,21.90
2018-12-26T00:56:10.466Z,20.20
2018-12-26T00:57:26.760Z,20.50
2018-12-26T00:58:05.727Z,20.40
2018-12-26T00:59:05.706Z,21.00
2018-12-26T01:00:26.696Z,20.00
2018-12-26T01:01:05.665Z,21.20
2018-12-26T01:02:26.641Z,21.00
2018-12-26T01:03:05.617Z,21.90
2018-12-26T01:04:05.602Z,21.30
2018-12-26T01:05:26.582Z,20.80
2018-12-26T01:06:05.554Z,20.80
2018-12-26T01:07:26.536Z,21.70
2018-12-26T01:08:05.527Z,20.70
2018-12-26T01:09:05.510Z,21.20
2018-12-26T01:10:26.471Z,22.10
2018-12-26T01:11:05.440Z,22.10
2018-12-26T01:12:26.437Z,23.10
2018-12-26T01:13:05.398Z,21.00
2018-12-26T01:14:05.381Z,22.70
2018-12-26T01:15:26.362Z,21.90
2018-12-26T01:16:05.333Z,21.60
2018-12-26T01:17:26.313Z,21.30
2018-12-26T01:18:05.288Z,23.70
2018-12-26T01:19:05.267Z,25.20
2018-12-26T01:20:26.247Z,24.60
2018-12-26T01:21:05.236Z,22.70
2018-12-26T01:22:26.202Z,21.50
2018-12-26T01:23:05.188Z,22.80
2018-12-26T01:24:05.158Z,22.40
2018-12-26T01:25:26.150Z,22.20
2018-12-26T01:26:05.130Z,22.40
2018-12-26T01:27:26.103Z,21.70
2018-12-26T01:28:05.071Z,21.50
2018-12-26T01:29:05.062Z,22.20
2018-12-26T01:30:26.032Z,21.30
2018-12-26T01:31:05.014Z,22.30
2018-12-26T01:32:26.000Z,21.60
2018-12-26T01:33:04.975Z,22.30
2018-12-26T01:34:04.939Z,22.40
2018-12-26T01:35:25.922Z,22.60
2018-12-26T01:36:04.907Z,22.20
2018-12-26T01:37:25.885Z,21.80
2018-12-26T01:38:04.866Z,23.60
2018-12-26T01:39:04.836Z,22.90
2018-12-26T01:40:25.821Z,21.40
2018-12-26T01:41:04.791Z,22.60
2018-12-26T01:42:25.774Z,22.00
2018-12-26T01:43:04.745Z,22.10
2018-12-26T01:44:04.732Z,22.80
2018-12-26T01:45:25.706Z,22.40
2018-12-26T01:46:04.680Z,22.60
2018-12-26T01:47:25.678Z,22.90
2018-12-26T01:48:04.644Z,23.00
2018-12-26T01:49:04.631Z,22.40
2018-12-26T01:50:25.604Z,22.60
2018-12-26T01:51:04.581Z,23.60
2018-12-26T01:52:25.560Z,22.40
2018-12-26T01:53:04.528Z,22.10
2018-12-26T01:54:04.510Z,23.20
2018-12-26T01:55:25.508Z,23.40
2018-12-26T01:56:04.480Z,23.60
2018-12-26T01:57:25.444Z,22.70
2018-12-26T01:58:04.418Z,23.60
2018-12-26T01:59:04.413Z,23.80
2018-12-26T02:00:25.387Z,23.50
2018-12-26T02:01:04.357Z,23.10
2018-12-26T02:02:25.352Z,23.60
2018-12-26T02:03:04.319Z,23.10
2018-12-26T02:04:04.290Z,24.40
2018-12-26T02:05:25.277Z,23.90
2018-12-26T02:06:04.248Z,23.70
2018-12-26T02:07:25.226Z,23.00
2018-12-26T02:08:04.218Z,24.10
2018-12-26T02:09:04.191Z,23.80
2018-12-26T02:10:25.162Z,23.90
2018-12-26T02:11:04.149Z,24.00
2018-12-26T02:12:25.125Z,24.30
2018-12-26T02:13:04.111Z,24.00
2018-12-26T02:14:04.084Z,25.10
2018-12-26T02:15:25.122Z,25.70
2018-12-26T02:16:04.035Z,24.70
2018-12-26T02:17:25.010Z,25.00
2018-12-26T02:18:03.984Z,24.00
2018-12-26T02:19:03.964Z,25.00
2018-12-26T02:20:24.953Z,24.00
2018-12-26T02:21:03.933Z,25.00
2018-12-26T02:22:24.903Z,24.80
2018-12-26T02:23:03.882Z,24.60
2018-12-26T02:24:03.868Z,24.50
2018-12-26T02:25:24.836Z,24.90
2018-12-26T02:26:03.820Z,24.90
2018-12-26T02:27:24.792Z,24.20
2018-12-26T02:28:03.767Z,24.70
2018-12-26T02:29:03.748Z,24.80
2018-12-26T02:30:24.728Z,25.20
2018-12-26T02:31:03.703Z,24.50
2018-12-26T02:32:24.689Z,25.30
2018-12-26T02:33:03.667Z,24.40
2018-12-26T02:34:03.645Z,25.60
2018-12-26T02:35:24.618Z,24.80
2018-12-26T02:36:03.596Z,25.80
2018-12-26T02:37:24.583Z,24.60
2018-12-26T02:38:03.560Z,24.90
2018-12-26T02:39:03.539Z,24.70
2018-12-26T02:40:24.515Z,24.70
2018-12-26T02:41:03.489Z,25.50
2018-12-26T02:42:24.473Z,26.00
2018-12-26T02:43:03.443Z,25.80
2018-12-26T02:44:03.430Z,25.50
2018-12-26T02:45:24.409Z,25.30
2018-12-26T02:46:03.383Z,26.80
2018-12-26T02:47:24.431Z,26.20
2018-12-26T02:48:03.441Z,25.80
2018-12-26T02:49:03.309Z,25.30
2018-12-26T02:50:24.288Z,25.70
2018-12-26T02:51:03.277Z,25.90
2018-12-26T02:52:24.258Z,26.70
2018-12-26T02:53:03.226Z,25.40
2018-12-26T02:54:03.221Z,26.50
2018-12-26T02:55:24.186Z,24.30
2018-12-26T02:56:03.167Z,25.80
2018-12-26T02:57:24.148Z,25.50
2018-12-26T02:58:03.141Z,26.50
2018-12-26T02:59:03.100Z,26.40
2018-12-26T03:00:24.074Z,26.20
2018-12-26T03:01:03.050Z,26.20
2018-12-26T03:02:24.029Z,26.80
2018-12-26T03:03:03.019Z,27.20
2018-12-26T03:04:02.986Z,28.50
2018-12-26T03:05:23.971Z,26.00
2018-12-26T03:06:02.938Z,26.00
2018-12-26T03:07:23.926Z,26.90
2018-12-26T03:08:02.913Z,24.80
2018-12-26T03:09:02.879Z,27.70
2018-12-26T03:10:23.855Z,27.40
2018-12-26T03:11:02.839Z,30.70
2018-12-26T03:12:23.810Z,29.80
2018-12-26T03:13:02.794Z,25.80
2018-12-26T03:14:03.294Z,26.70
2018-12-26T03:15:23.745Z,28.50
2018-12-26T03:16:02.719Z,27.70
2018-12-26T03:17:23.708Z,27.10
2018-12-26T03:18:02.676Z,26.30
2018-12-26T03:19:02.663Z,27.50
2018-12-26T03:20:23.642Z,25.00
2018-12-26T03:21:02.612Z,25.20
2018-12-26T03:22:23.597Z,26.60
2018-12-26T03:23:02.573Z,26.10
2018-12-26T03:24:02.553Z,26.90
2018-12-26T03:25:23.542Z,27.70
2018-12-26T03:26:02.511Z,26.80
2018-12-26T03:27:23.483Z,27.00
2018-12-26T03:28:02.460Z,28.00
2018-12-26T03:29:02.437Z,27.20
2018-12-26T03:30:23.427Z,27.60
2018-12-26T03:31:02.437Z,28.50
2018-12-26T03:32:23.388Z,27.20
2018-12-26T03:33:02.352Z,27.30
2018-12-26T03:34:02.328Z,26.70
2018-12-26T03:35:23.315Z,28.20
2018-12-26T03:36:02.294Z,28.60
2018-12-26T03:37:23.277Z,26.80
2018-12-26T03:38:02.240Z,27.90
2018-12-26T03:39:02.227Z,26.90
2018-12-26T03:40:23.204Z,27.50
2018-12-26T03:41:02.183Z,26.70
2018-12-26T03:42:23.170Z,27.00
2018-12-26T03:43:02.143Z,27.00
2018-12-26T03:44:02.120Z,26.80
2018-12-26T03:45:23.087Z,28.00
2018-12-26T03:46:02.199Z,27.20
2018-12-26T03:47:23.044Z,29.40
2018-12-26T03:48:02.028Z,28.10
2018-12-26T03:49:02.000Z,28.50
2018-12-26T03:50:22.977Z,29.80
2018-12-26T03:51:01.964Z,28.60
2018-12-26T03:52:22.945Z,27.20
2018-12-26T03:53:01.911Z,28.60
2018-12-26T03:54:01.892Z,28.60
2018-12-26T03:55:22.873Z,28.00
2018-12-26T03:56:01.846Z,28.10
2018-12-26T03:57:22.825Z,28.90
2018-12-26T03:58:01.801Z,28.00
2018-12-26T03:59:01.780Z,28.00
2018-12-26T04:00:22.760Z,28.70
2018-12-26T04:01:01.746Z,29.00
2018-12-26T04:02:22.719Z,28.50
2018-12-26T04:03:01.703Z,27.30
2018-12-26T04:04:01.675Z,27.70
2018-12-26T04:05:22.648Z,26.70
2018-12-26T04:06:01.623Z,29.10
2018-12-26T04:07:22.608Z,28.70
2018-12-26T04:08:01.590Z,27.70
2018-12-26T04:09:01.562Z,27.60
2018-12-26T04:10:22.539Z,28.00
2018-12-26T04:11:01.513Z,28.10
2018-12-26T04:12:22.511Z,29.50
2018-12-26T04:13:01.482Z,27.80
2018-12-26T04:14:01.456Z,27.30
2018-12-26T04:15:22.429Z,28.80
2018-12-26T04:16:01.406Z,28.30
2018-12-26T04:17:22.397Z,28.70
2018-12-26T04:18:01.378Z,28.50
2018-12-26T04:19:01.341Z,27.90
2018-12-26T04:20:22.319Z,27.20
2018-12-26T04:21:01.299Z,27.40
2018-12-26T04:22:22.275Z,28.40
2018-12-26T04:23:01.255Z,28.60
2018-12-26T04:24:01.242Z,28.30
2018-12-26T04:25:22.223Z,27.80
2018-12-26T04:26:01.193Z,27.70
2018-12-26T04:27:22.180Z,28.90
2018-12-26T04:28:01.155Z,28.30
2018-12-26T04:29:01.121Z,27.80
2018-12-26T04:30:22.098Z,27.50
2018-12-26T04:31:01.073Z,28.90
2018-12-26T04:32:22.058Z,28.00
2018-12-26T04:33:01.113Z,28.90
2018-12-26T04:34:01.009Z,28.40
2018-12-26T04:35:21.986Z,28.90
2018-12-26T04:36:00.984Z,29.80
2018-12-26T04:37:21.951Z,27.20
2018-12-26T04:38:00.922Z,28.50
2018-12-26T04:39:00.901Z,28.50
2018-12-26T04:40:21.882Z,27.90
2018-12-26T04:41:00.854Z,28.50
2018-12-26T04:42:21.938Z,29.00
2018-12-26T04:43:00.812Z,28.50
2018-12-26T04:44:00.798Z,28.30
2018-12-26T04:45:21.773Z,28.90
2018-12-26T04:46:00.745Z,28.90
2018-12-26T04:47:21.726Z,29.60
2018-12-26T04:48:00.700Z,28.10
2018-12-26T04:49:00.689Z,28.60
2018-12-26T04:50:21.669Z,28.40
2018-12-26T04:51:00.635Z,29.60
2018-12-26T04:52:21.625Z,29.00
2018-12-26T04:53:00.597Z,29.80
2018-12-26T04:54:00.568Z,30.40
2018-12-26T04:55:21.548Z,28.40
2018-12-26T04:56:00.530Z,29.20
2018-12-26T04:57:24.940Z,29.20
2018-12-26T04:58:00.489Z,28.40
2018-12-26T04:59:00.470Z,29.40
2018-12-26T05:00:21.447Z,28.50
2018-12-26T05:01:00.424Z,28.80
2018-12-26T05:02:21.396Z,28.00
2018-12-26T05:03:00.380Z,29.00
2018-12-26T05:04:00.360Z,29.10
2018-12-26T05:05:21.328Z,28.00
2018-12-26T05:06:00.302Z,28.80
2018-12-26T05:07:21.285Z,27.30
2018-12-26T05:08:00.270Z,30.50
2018-12-26T05:09:00.245Z,27.80
2018-12-26T05:10:21.222Z,29.60
2018-12-26T05:11:00.203Z,28.60
2018-12-26T05:12:21.184Z,29.50
2018-12-26T05:13:00.157Z,28.00
2018-12-26T05:14:00.139Z,28.40
2018-12-26T05:15:21.114Z,28.80
2018-12-26T05:16:00.095Z,29.60
2018-12-26T05:17:21.063Z,28.80
2018-12-26T05:18:00.039Z,28.20
2018-12-26T05:19:00.026Z,28.30
2018-12-26T05:20:21.003Z,28.40
2018-12-26T05:20:59.975Z,28.70
2018-12-26T05:22:20.957Z,27.40
2018-12-26T05:22:59.933Z,28.70
2018-12-26T05:23:59.913Z,29.60
2018-12-26T05:25:20.888Z,28.60
2018-12-26T05:25:59.865Z,29.40
2018-12-26T05:27:20.847Z,29.50
2018-12-26T05:27:59.821Z,28.50
2018-12-26T05:28:59.799Z,29.00
2018-12-26T05:30:20.784Z,28.30
2018-12-26T05:30:59.755Z,29.20
2018-12-26T05:32:20.734Z,30.80
2018-12-26T05:32:59.714Z,29.90
2018-12-26T05:33:59.695Z,30.00
2018-12-26T05:35:20.669Z,29.10
2018-12-26T05:35:59.648Z,29.40
2018-12-26T05:37:20.629Z,30.80
2018-12-26T05:37:59.609Z,30.90
2018-12-26T05:38:59.581Z,30.40
2018-12-26T05:40:20.583Z,29.70
2018-12-26T05:40:59.536Z,30.50
2018-12-26T05:42:20.529Z,31.10
2018-12-26T05:42:59.492Z,30.80
2018-12-26T05:43:59.476Z,32.10
2018-12-26T05:45:20.446Z,31.90
2018-12-26T05:45:59.433Z,31.50
2018-12-26T05:47:20.419Z,32.60
2018-12-26T05:47:59.382Z,31.60
2018-12-26T05:48:59.360Z,31.10
2018-12-26T05:50:20.338Z,32.50
2018-12-26T05:50:59.320Z,31.90
2018-12-26T05:52:20.306Z,31.50
2018-12-26T05:52:59.280Z,33.10
2018-12-26T05:53:59.259Z,32.40
2018-12-26T05:55:20.229Z,32.90
2018-12-26T05:55:59.206Z,32.80
2018-12-26T05:57:20.192Z,33.50
2018-12-26T05:57:59.161Z,31.50
2018-12-26T05:58:59.142Z,32.60
2018-12-26T06:00:20.127Z,32.80
2018-12-26T06:00:59.114Z,33.50
2018-12-26T06:02:20.071Z,34.10
2018-12-26T06:02:59.057Z,33.00
2018-12-26T06:03:59.032Z,33.30
2018-12-26T06:05:20.006Z,33.30
2018-12-26T06:05:58.985Z,35.00
2018-12-26T06:07:19.965Z,33.30
2018-12-26T06:07:58.943Z,32.80
2018-12-26T06:08:58.918Z,34.30
2018-12-26T06:10:19.893Z,32.00
2018-12-26T06:10:58.872Z,31.70
2018-12-26T06:12:19.850Z,33.70
2018-12-26T06:12:58.837Z,34.00
2018-12-26T06:13:58.807Z,34.60
2018-12-26T06:15:19.784Z,32.40
2018-12-26T06:15:58.770Z,34.00
2018-12-26T06:17:19.744Z,33.50
2018-12-26T06:17:58.716Z,33.80
2018-12-26T06:18:58.694Z,35.40
2018-12-26T06:20:19.689Z,33.40
2018-12-26T06:20:58.653Z,35.20
2018-12-26T06:22:19.647Z,34.80
2018-12-26T06:22:58.614Z,35.50
2018-12-26T06:23:58.587Z,35.90
2018-12-26T06:25:19.570Z,34.00
2018-12-26T06:25:58.538Z,34.90
2018-12-26T06:27:20.283Z,34.60
2018-12-26T06:27:58.502Z,34.60
2018-12-26T06:28:58.476Z,33.80
2018-12-26T06:30:19.457Z,36.20
2018-12-26T06:30:58.426Z,35.90
2018-12-26T06:32:19.510Z,35.80
2018-12-26T06:32:58.392Z,34.00
2018-12-26T06:33:58.372Z,35.20
2018-12-26T06:35:19.343Z,34.40
2018-12-26T06:35:58.320Z,37.30
2018-12-26T06:37:19.304Z,35.60
2018-12-26T06:37:58.278Z,37.10
2018-12-26T06:38:58.253Z,35.90
2018-12-26T06:40:19.240Z,34.90
2018-12-26T06:40:58.203Z,36.10
2018-12-26T06:42:19.191Z,34.60
2018-12-26T06:42:58.161Z,36.00
2018-12-26T06:43:58.144Z,35.10
2018-12-26T06:45:19.118Z,36.40
2018-12-26T06:45:58.152Z,33.40
2018-12-26T06:47:19.069Z,36.00
2018-12-26T06:47:58.051Z,35.20
2018-12-26T06:48:58.027Z,36.80
2018-12-26T06:50:19.005Z,35.00
2018-12-26T06:50:58.007Z,35.10
2018-12-26T06:52:18.964Z,35.60
2018-12-26T06:52:57.936Z,35.20
2018-12-26T06:53:57.926Z,38.20
2018-12-26T06:55:18.894Z,34.90
2018-12-26T06:55:57.873Z,35.50
2018-12-26T06:57:18.850Z,35.80
2018-12-26T06:58:00.262Z,33.00
2018-12-26T06:58:57.802Z,34.80
2018-12-26T07:00:18.788Z,35.20
2018-12-26T07:00:57.758Z,36.40
2018-12-26T07:02:18.750Z,35.30
2018-12-26T07:02:57.725Z,35.00
2018-12-26T07:03:57.692Z,34.20
2018-12-26T07:05:18.673Z,34.20
2018-12-26T07:05:57.658Z,36.50
2018-12-26T07:07:18.627Z,34.60
2018-12-26T07:07:57.613Z,34.30
2018-12-26T07:08:57.586Z,35.60
2018-12-26T07:10:18.570Z,35.50
2018-12-26T07:10:57.539Z,35.80
2018-12-26T07:12:18.521Z,36.10
2018-12-26T07:12:57.505Z,34.20
2018-12-26T07:13:57.481Z,35.60
2018-12-26T07:15:18.460Z,35.60
2018-12-26T07:15:57.437Z,34.40
2018-12-26T07:17:18.414Z,35.10
2018-12-26T07:17:57.383Z,34.50
2018-12-26T07:18:57.371Z,33.10
2018-12-26T07:20:18.342Z,35.10
2018-12-26T07:20:57.325Z,34.80
2018-12-26T07:22:18.298Z,33.60
2018-12-26T07:22:57.283Z,35.10
2018-12-26T07:23:57.253Z,35.10
2018-12-26T07:25:18.233Z,34.20
2018-12-26T07:25:57.210Z,34.30
2018-12-26T07:27:18.185Z,35.00
2018-12-26T07:27:57.163Z,35.50
2018-12-26T07:28:57.143Z,33.90
2018-12-26T07:30:18.117Z,36.90
2018-12-26T07:30:57.095Z,34.80
2018-12-26T07:32:18.077Z,34.30
2018-12-26T07:32:57.049Z,33.60
2018-12-26T07:33:57.040Z,35.40
2018-12-26T07:35:18.014Z,34.60
2018-12-26T07:35:56.982Z,34.10
2018-12-26T07:37:17.965Z,34.60
2018-12-26T07:37:56.943Z,37.20
2018-12-26T07:38:56.924Z,37.10
2018-12-26T07:40:17.898Z,34.90
2018-12-26T07:40:56.883Z,35.10
2018-12-26T07:42:17.859Z,35.70
2018-12-26T07:42:56.828Z,35.40
2018-12-26T07:43:56.813Z,34.80
2018-12-26T07:45:17.784Z,34.30
2018-12-26T07:45:56.779Z,34.60
2018-12-26T07:47:17.746Z,35.80
2018-12-26T07:47:56.720Z,34.50
2018-12-26T07:48:56.705Z,34.70
2018-12-26T07:50:17.685Z,35.30
2018-12-26T07:50:56.670Z,34.80
2018-12-26T07:52:17.632Z,35.30
2018-12-26T07:52:56.615Z,35.90
2018-12-26T07:53:56.584Z,35.60
2018-12-26T07:55:17.567Z,36.00
2018-12-26T07:55:56.540Z,36.30
2018-12-26T07:57:17.570Z,35.30
2018-12-26T07:57:56.502Z,36.40
2018-12-26T07:58:56.472Z,36.40
2018-12-26T08:00:17.454Z,33.40
2018-12-26T08:00:56.430Z,35.70
2018-12-26T08:02:17.408Z,37.00
2018-12-26T08:02:56.402Z,36.80
2018-12-26T08:03:56.364Z,36.00
2018-12-26T08:05:17.342Z,40.10
2018-12-26T08:05:56.325Z,36.80
2018-12-26T08:07:17.305Z,35.90
2018-12-26T08:07:56.274Z,38.00
2018-12-26T08:08:56.259Z,37.50
2018-12-26T08:10:17.229Z,38.30
2018-12-26T08:10:56.203Z,36.80
2018-12-26T08:12:17.188Z,37.20
2018-12-26T08:12:56.161Z,37.70
2018-12-26T08:13:56.142Z,39.40
2018-12-26T08:15:17.117Z,40.00
2018-12-26T08:15:56.096Z,38.70
2018-12-26T08:17:17.072Z,39.30
2018-12-26T08:17:56.063Z,39.80
2018-12-26T08:18:56.030Z,39.50
2018-12-26T08:20:17.005Z,39.00
2018-12-26T08:20:55.983Z,39.00
2018-12-26T08:22:16.965Z,40.80
2018-12-26T08:22:55.948Z,38.80
2018-12-26T08:23:55.937Z,38.90
2018-12-26T08:25:16.895Z,40.10
2018-12-26T08:25:55.870Z,40.00
2018-12-26T08:27:16.857Z,41.10
2018-12-26T08:27:55.836Z,40.60
2018-12-26T08:28:55.820Z,38.10
2018-12-26T08:30:16.792Z,42.90
2018-12-26T08:30:55.760Z,41.30
2018-12-26T08:32:16.738Z,39.80
2018-12-26T08:32:55.724Z,43.00
2018-12-26T08:33:55.692Z,41.60
2018-12-26T08:35:16.686Z,42.10
2018-12-26T08:35:55.649Z,39.00
2018-12-26T08:37:16.639Z,40.40
2018-12-26T08:37:55.604Z,39.40
2018-12-26T08:38:55.589Z,41.00
2018-12-26T08:40:16.567Z,40.50
2018-12-26T08:40:55.538Z,42.30
2018-12-26T08:42:16.523Z,40.90
2018-12-26T08:42:55.492Z,41.20
2018-12-26T08:43:55.486Z,41.20
2018-12-26T08:45:16.448Z,41.20
2018-12-26T08:45:55.427Z,40.80
2018-12-26T08:47:16.410Z,40.20
2018-12-26T08:47:55.381Z,41.90
2018-12-26T08:48:55.368Z,41.70
2018-12-26T08:50:16.338Z,42.50
2018-12-26T08:50:55.313Z,41.30
2018-12-26T08:52:16.296Z,39.90
2018-12-26T08:52:55.278Z,40.30
2018-12-26T08:53:55.254Z,41.20
2018-12-26T08:55:16.228Z,41.70
2018-12-26T08:55:55.206Z,42.90
2018-12-26T08:57:16.190Z,42.10
2018-12-26T08:57:55.161Z,41.40
2018-12-26T08:58:55.141Z,42.00
2018-12-26T09:00:16.119Z,43.40
2018-12-26T09:00:55.097Z,41.60
2018-12-26T09:02:16.380Z,42.20
2018-12-26T09:02:55.049Z,40.90
2018-12-26T09:03:55.038Z,42.10
2018-12-26T09:05:16.005Z,42.00
2018-12-26T09:05:54.992Z,43.40
2018-12-26T09:07:15.966Z,40.80
2018-12-26T09:07:54.944Z,40.30
2018-12-26T09:08:54.925Z,41.40
2018-12-26T09:10:15.895Z,41.30
2018-12-26T09:10:54.874Z,39.90
2018-12-26T09:12:15.857Z,41.40
2018-12-26T09:12:54.832Z,40.50
2018-12-26T09:13:54.806Z,41.20
2018-12-26T09:15:15.784Z,41.30
2018-12-26T09:15:54.766Z,41.40
2018-12-26T09:17:15.742Z,42.80
2018-12-26T09:17:54.731Z,42.30
2018-12-26T09:18:54.696Z,41.50
2018-12-26T09:20:15.675Z,40.90
2018-12-26T09:20:54.651Z,41.10
2018-12-26T09:22:15.644Z,43.20
2018-12-26T09:22:54.615Z,41.40
2018-12-26T09:23:54.585Z,42.80
2018-12-26T09:25:15.574Z,43.50
2018-12-26T09:25:54.544Z,43.20
2018-12-26T09:27:15.528Z,42.80
2018-12-26T09:27:54.496Z,41.50
2018-12-26T09:28:54.482Z,42.50
2018-12-26T09:30:15.457Z,40.20
2018-12-26T09:30:54.430Z,40.70
2018-12-26T09:32:15.424Z,43.30
2018-12-26T09:32:54.386Z,42.70
2018-12-26T09:33:54.371Z,41.80
2018-12-26T09:35:15.345Z,44.10
2018-12-26T09:35:54.324Z,41.60
2018-12-26T09:37:15.309Z,42.80
2018-12-26T09:37:54.280Z,39.40
2018-12-26T09:38:54.254Z,42.60
2018-12-26T09:40:15.243Z,41.90
2018-12-26T09:40:54.213Z,43.20
2018-12-26T09:42:15.201Z,42.10
2018-12-26T09:42:54.173Z,42.40
2018-12-26T09:43:54.155Z,42.50
2018-12-26T09:45:15.124Z,43.50
2018-12-26T09:45:54.101Z,41.20
2018-12-26T09:47:15.079Z,39.60
2018-12-26T09:47:54.067Z,41.60
2018-12-26T09:48:54.044Z,41.00
2018-12-26T09:50:15.034Z,41.10
2018-12-26T09:50:53.992Z,40.90
2018-12-26T09:52:14.983Z,39.10
2018-12-26T09:52:53.954Z,41.00
2018-12-26T09:53:53.935Z,40.50
2018-12-26T09:55:14.903Z,41.00
2018-12-26T09:55:53.882Z,40.60
2018-12-26T09:57:14.865Z,41.20
2018-12-26T09:57:53.845Z,41.20
2018-12-26T09:58:53.815Z,41.20
2018-12-26T10:00:14.797Z,41.40
2018-12-26T10:00:53.791Z,41.00
2018-12-26T10:02:14.755Z,42.20
2018-12-26T10:02:53.728Z,41.90
2018-12-26T10:03:53.719Z,39.70
2018-12-26T10:05:14.697Z,40.70
2018-12-26T10:05:53.672Z,40.50
2018-12-26T10:07:14.653Z,42.30
2018-12-26T10:07:53.623Z,40.80
2018-12-26T10:08:53.604Z,41.70
2018-12-26T10:10:14.588Z,41.50
2018-12-26T10:10:53.564Z,41.90
2018-12-26T10:12:14.540Z,41.00
2018-12-26T10:12:53.514Z,44.40
2018-12-26T10:13:53.498Z,42.30
2018-12-26T10:15:14.470Z,42.60
2018-12-26T10:15:53.449Z,43.40
2018-12-26T10:17:14.426Z,41.70
2018-12-26T10:17:53.403Z,41.30
2018-12-26T10:18:53.380Z,40.10
2018-12-26T10:20:14.367Z,42.70
2018-12-26T10:20:53.339Z,43.40
2018-12-26T10:22:14.335Z,43.40
2018-12-26T10:22:53.302Z,45.90
2018-12-26T10:23:53.288Z,44.30
2018-12-26T10:25:14.252Z,45.40
2018-12-26T10:25:53.238Z,45.20
2018-12-26T10:27:14.211Z,44.40
2018-12-26T10:27:53.200Z,42.80
2018-12-26T10:29:00.799Z,44.00
2018-12-26T10:30:14.143Z,45.20
2018-12-26T10:30:53.120Z,46.10
2018-12-26T10:32:14.111Z,45.00
2018-12-26T10:32:53.086Z,44.20
2018-12-26T10:33:53.074Z,45.20
2018-12-26T10:35:14.041Z,45.70
2018-12-26T10:35:53.030Z,46.10
2018-12-26T10:37:13.993Z,47.70
2018-12-26T10:37:52.978Z,46.40
2018-12-26T10:38:52.960Z,44.70
2018-12-26T10:40:13.936Z,45.50
2018-12-26T10:40:52.913Z,46.40
2018-12-26T10:42:13.883Z,44.60
2018-12-26T10:42:52.859Z,46.20
2018-12-26T10:43:52.838Z,46.80
2018-12-26T10:45:13.825Z,46.10
2018-12-26T10:45:52.802Z,46.00
2018-12-26T10:47:13.777Z,47.30
2018-12-26T10:47:52.752Z,47.50
2018-12-26T10:48:52.737Z,46.90
2018-12-26T10:50:13.716Z,47.40
2018-12-26T10:50:52.693Z,44.70
2018-12-26T10:52:13.666Z,46.70
2018-12-26T10:52:52.646Z,46.20
2018-12-26T10:53:52.624Z,46.80
2018-12-26T10:55:13.636Z,45.80
2018-12-26T10:55:52.582Z,45.00
2018-12-26T10:57:13.556Z,46.40
2018-12-26T10:57:52.550Z,45.30
2018-12-26T10:58:52.514Z,46.80
2018-12-26T11:00:13.496Z,44.90
2018-12-26T11:00:52.480Z,46.50
2018-12-26T11:02:13.449Z,46.00
2018-12-26T11:02:52.426Z,44.20
2018-12-26T11:03:52.417Z,44.70
2018-12-26T11:05:13.385Z,43.80
2018-12-26T11:05:52.360Z,44.60
2018-12-26T11:07:13.357Z,43.30
2018-12-26T11:07:52.334Z,42.60
2018-12-26T11:08:52.297Z,43.20
2018-12-26T11:10:13.278Z,41.40
2018-12-26T11:10:52.257Z,41.90
2018-12-26T11:12:13.232Z,42.40
2018-12-26T11:12:52.219Z,41.60
2018-12-26T11:13:52.186Z,40.90
2018-12-26T11:15:13.176Z,41.00
2018-12-26T11:15:52.144Z,42.60
2018-12-26T11:17:13.141Z,41.50
2018-12-26T11:17:52.110Z,40.30
2018-12-26T11:18:52.091Z,39.20
2018-12-26T11:20:13.063Z,39.50
2018-12-26T11:20:52.036Z,38.20
2018-12-26T11:22:13.033Z,40.00
2018-12-26T11:22:52.001Z,39.40
2018-12-26T11:23:51.970Z,39.10
2018-12-26T11:25:12.992Z,39.60
2018-12-26T11:25:51.938Z,38.20
2018-12-26T11:27:12.918Z,38.20
2018-12-26T11:27:52.951Z,39.50
2018-12-26T11:28:51.880Z,36.80
2018-12-26T11:30:12.852Z,39.10
2018-12-26T11:30:51.838Z,37.90
2018-12-26T11:32:12.810Z,38.80
2018-12-26T11:32:51.783Z,38.10
2018-12-26T11:33:51.755Z,39.50
2018-12-26T11:35:12.735Z,38.40
2018-12-26T11:35:51.721Z,38.60
2018-12-26T11:37:12.695Z,40.50
2018-12-26T11:37:51.671Z,38.50
2018-12-26T11:38:51.654Z,40.20
2018-12-26T11:40:12.629Z,39.80
2018-12-26T11:40:51.607Z,38.60
2018-12-26T11:42:12.583Z,39.40
2018-12-26T11:42:51.580Z,40.90
2018-12-26T11:43:51.556Z,39.40
2018-12-26T11:45:12.528Z,38.40
2018-12-26T11:45:51.497Z,38.50
2018-12-26T11:47:12.478Z,39.80
2018-12-26T11:47:51.463Z,40.00
2018-12-26T11:48:51.433Z,39.80
2018-12-26T11:50:12.414Z,42.10
2018-12-26T11:50:51.397Z,40.60
2018-12-26T11:52:12.377Z,40.70
2018-12-26T11:52:51.354Z,41.90
2018-12-26T11:53:51.325Z,39.90
2018-12-26T11:55:12.312Z,40.50
2018-12-26T11:55:51.282Z,42.40
2018-12-26T11:57:12.259Z,41.90
2018-12-26T11:57:51.237Z,42.50
2018-12-26T11:58:51.224Z,44.00
2018-12-26T12:00:12.202Z,44.10
2018-12-26T12:00:51.171Z,43.10
2018-12-26T12:02:20.399Z,43.10
2018-12-26T12:02:51.144Z,42.30
2018-12-26T12:03:51.106Z,42.00
2018-12-26T12:05:12.096Z,43.90
2018-12-26T12:05:51.072Z,43.80
2018-12-26T12:07:12.048Z,43.50
2018-12-26T12:07:51.025Z,45.20
2018-12-26T12:08:51.006Z,44.50
2018-12-26T12:10:11.990Z,44.20
2018-12-26T12:10:50.976Z,41.90
2018-12-26T12:12:11.939Z,42.60
2018-12-26T12:12:50.909Z,41.80
2018-12-26T12:13:50.908Z,41.60
2018-12-26T12:15:11.883Z,41.00
2018-12-26T12:15:50.869Z,40.30
2018-12-26T12:17:11.827Z,40.30
2018-12-26T12:17:50.807Z,41.80
2018-12-26T12:18:50.796Z,42.10
2018-12-26T12:20:11.770Z,41.40
2018-12-26T12:20:50.749Z,42.00
2018-12-26T12:22:11.728Z,41.00
2018-12-26T12:22:50.698Z,40.90
2018-12-26T12:23:50.679Z,42.70
2018-12-26T12:25:11.660Z,42.60
2018-12-26T12:25:50.626Z,42.00
2018-12-26T12:27:11.664Z,42.40
2018-12-26T12:27:50.593Z,42.40
2018-12-26T12:28:50.569Z,40.90
2018-12-26T12:30:11.544Z,43.70
2018-12-26T12:30:50.518Z,42.50
2018-12-26T12:32:11.508Z,43.60
2018-12-26T12:32:50.495Z,43.60
2018-12-26T12:33:50.463Z,43.40
2018-12-26T12:35:11.432Z,42.70
2018-12-26T12:35:50.411Z,43.10
2018-12-26T12:37:11.392Z,43.30
2018-12-26T12:37:50.387Z,45.20
2018-12-26T12:38:50.348Z,44.30
2018-12-26T12:40:11.326Z,45.70
2018-12-26T12:40:50.312Z,45.80
2018-12-26T12:42:11.289Z,43.70
2018-12-26T12:42:50.258Z,44.70
2018-12-26T12:43:50.244Z,44.70
2018-12-26T12:45:11.227Z,45.80
2018-12-26T12:45:50.196Z,45.10
2018-12-26T12:47:11.186Z,46.10
2018-12-26T12:47:50.154Z,46.90
2018-12-26T12:48:50.129Z,46.00
2018-12-26T12:50:11.126Z,46.60
2018-12-26T12:50:50.087Z,46.60
2018-12-26T12:52:11.070Z,45.00